Time;durP1;ratioP1;P1;durP2;ratioP2;P2;SDS_P1;SDS_P2;PMS_P1;PMS_P2;Temp;Humidity;BMP_temperature;BMP_pressure;BME280_temperature;BME280_humidity;BME280_pressure;Samples;Min_cycle;Max_cycle;Signal;HPM_P1;HPM_P2
2021/09/25 00:02:24;;;;;;;4.40;3.93;;;14.80;99.90;;;;;;5028037;28;20451;-76
2021/09/25 00:04:50;;;;;;;4.80;4.20;;;14.80;99.90;;;;;;5023323;28;20192;-76
2021/09/25 00:07:15;;;;;;;5.37;4.40;;;14.80;99.90;;;;;;5029834;28;20705;-76
2021/09/25 00:09:42;;;;;;;3.77;3.37;;;14.80;99.90;;;;;;5028973;28;20684;-76
2021/09/25 00:12:10;;;;;;;6.40;3.87;;;14.80;99.90;;;;;;5028807;28;20188;-76
2021/09/25 00:14:38;;;;;;;5.70;4.87;;;14.80;99.90;;;;;;5029356;28;20473;-76
2021/09/25 00:17:05;;;;;;;4.77;4.30;;;14.80;99.90;;;;;;5025363;28;20451;-76
2021/09/25 00:19:31;;;;;;;5.77;4.50;;;14.80;99.90;;;;;;5032190;28;20423;-76
2021/09/25 00:21:57;;;;;;;3.93;3.20;;;14.80;99.90;;;;;;5028552;28;20455;-76
2021/09/25 00:24:22;;;;;;;6.27;4.53;;;14.70;99.90;;;;;;5029075;28;20311;-76
2021/09/25 00:26:48;;;;;;;13.43;7.43;;;14.70;99.90;;;;;;5029286;28;20188;-76
2021/09/25 00:29:13;;;;;;;12.43;8.30;;;14.70;99.90;;;;;;5026134;28;20180;-76
2021/09/25 00:31:39;;;;;;;16.23;10.17;;;14.70;99.90;;;;;;5025218;28;20205;-76
2021/09/25 00:34:05;;;;;;;18.90;10.70;;;14.70;99.90;;;;;;5028008;28;20185;-76
2021/09/25 00:36:30;;;;;;;17.63;10.20;;;14.60;99.90;;;;;;5031334;28;20199;-77
2021/09/25 00:38:56;;;;;;;15.63;8.70;;;14.70;99.90;;;;;;5028975;28;20266;-77
2021/09/25 00:41:21;;;;;;;14.80;8.80;;;14.60;99.90;;;;;;5024099;28;20223;-76
2021/09/25 00:43:47;;;;;;;15.30;9.60;;;14.60;99.90;;;;;;5027889;28;20272;-76
2021/09/25 00:46:13;;;;;;;20.33;9.37;;;14.60;99.90;;;;;;5026493;28;20612;-76
2021/09/25 00:48:40;;;;;;;19.57;10.03;;;14.60;99.90;;;;;;5025150;28;20184;-76
2021/09/25 00:51:05;;;;;;;17.53;10.60;;;14.60;99.90;;;;;;5022841;28;20966;-76
2021/09/25 00:53:31;;;;;;;17.53;10.53;;;14.50;99.90;;;;;;5023967;28;20431;-76
2021/09/25 00:55:57;;;;;;;13.33;8.20;;;14.50;99.90;;;;;;5029446;28;20186;-76
2021/09/25 00:58:23;;;;;;;12.87;7.80;;;14.50;99.90;;;;;;5024538;28;20201;-76
2021/09/25 01:00:48;;;;;;;12.60;8.20;;;14.50;99.90;;;;;;5024736;28;20456;-76
2021/09/25 01:03:14;;;;;;;10.90;7.07;;;14.50;99.90;;;;;;5029720;28;20264;-76
2021/09/25 01:05:44;;;;;;;7.40;5.80;;;14.50;99.90;;;;;;5026670;28;20185;-76
2021/09/25 01:08:10;;;;;;;11.37;6.87;;;14.50;99.90;;;;;;5027404;28;20173;-76
2021/09/25 01:10:35;;;;;;;11.70;7.53;;;14.40;99.90;;;;;;5028069;28;20928;-76
2021/09/25 01:13:01;;;;;;;11.10;7.53;;;14.40;99.90;;;;;;5033574;28;20255;-76
2021/09/25 01:15:26;;;;;;;12.30;7.70;;;14.40;99.90;;;;;;5028637;28;20181;-76
2021/09/25 01:17:52;;;;;;;12.40;7.27;;;14.40;99.90;;;;;;5022876;28;20394;-76
2021/09/25 01:20:18;;;;;;;12.43;7.83;;;14.40;99.90;;;;;;5027492;28;20185;-76
2021/09/25 01:22:43;;;;;;;9.80;6.03;;;14.30;99.90;;;;;;5031536;28;20197;-76
2021/09/25 01:25:10;;;;;;;11.33;7.43;;;14.30;99.90;;;;;;5029368;28;20178;-77
2021/09/25 01:27:36;;;;;;;17.20;12.07;;;14.30;99.90;;;;;;5028087;28;20661;-77
2021/09/25 01:30:05;;;;;;;21.43;11.47;;;14.30;99.90;;;;;;5025635;28;20422;-76
2021/09/25 01:32:31;;;;;;;21.13;12.23;;;14.30;99.90;;;;;;5024659;28;20820;-76
2021/09/25 01:34:56;;;;;;;17.00;10.80;;;14.30;99.90;;;;;;5027653;28;20433;-76
2021/09/25 01:37:22;;;;;;;15.93;9.20;;;14.30;99.90;;;;;;5028384;28;20190;-76
2021/09/25 01:39:47;;;;;;;12.83;8.07;;;14.30;99.90;;;;;;5032100;28;20182;-76
2021/09/25 01:42:13;;;;;;;10.60;7.30;;;14.20;99.90;;;;;;5030199;28;20254;-76
2021/09/25 01:44:38;;;;;;;11.07;6.83;;;14.20;99.90;;;;;;5028566;28;20187;-76
2021/09/25 01:47:04;;;;;;;10.93;6.97;;;14.20;99.90;;;;;;5026586;28;20184;-77
2021/09/25 01:49:30;;;;;;;15.00;8.87;;;14.20;99.90;;;;;;5029997;28;20171;-76
2021/09/25 01:51:55;;;;;;;15.97;9.47;;;14.20;99.90;;;;;;5032673;28;20235;-76
2021/09/25 01:54:21;;;;;;;17.80;10.17;;;14.20;99.90;;;;;;5024598;28;20176;-76
2021/09/25 01:56:47;;;;;;;19.40;10.87;;;14.10;99.90;;;;;;5030281;28;20198;-76
2021/09/25 01:59:12;;;;;;;19.30;11.20;;;14.20;99.90;;;;;;5025128;28;20553;-76
2021/09/25 02:01:39;;;;;;;23.20;12.73;;;14.20;99.90;;;;;;5034288;28;20211;-76
2021/09/25 02:04:05;;;;;;;14.53;10.93;;;14.20;99.90;;;;;;5030435;28;20179;-76
2021/09/25 02:06:30;;;;;;;20.10;10.27;;;14.20;99.90;;;;;;5032393;28;20415;-76
2021/09/25 02:08:56;;;;;;;14.83;8.20;;;14.10;99.90;;;;;;5028276;28;20424;-76
2021/09/25 02:11:23;;;;;;;14.70;8.70;;;14.10;99.90;;;;;;5032758;28;20182;-76
2021/09/25 02:13:49;;;;;;;11.73;7.00;;;14.10;99.90;;;;;;5029940;28;20908;-76
2021/09/25 02:16:14;;;;;;;14.33;7.70;;;14.10;99.90;;;;;;5033728;28;20513;-76
2021/09/25 02:18:40;;;;;;;10.67;6.93;;;14.10;99.90;;;;;;5029355;28;20190;-76
2021/09/25 02:21:06;;;;;;;9.20;7.03;;;14.10;99.90;;;;;;5027073;28;20621;-76
2021/09/25 02:23:33;;;;;;;10.60;7.53;;;14.00;99.90;;;;;;5029964;28;20442;-77
2021/09/25 02:25:59;;;;;;;7.43;5.57;;;14.00;99.90;;;;;;5030996;28;20697;-76
2021/09/25 02:28:25;;;;;;;11.10;7.20;;;14.00;99.90;;;;;;5034815;28;20473;-75
2021/09/25 02:30:51;;;;;;;8.47;6.37;;;14.00;99.90;;;;;;5030050;28;20988;-75
2021/09/25 02:33:17;;;;;;;8.93;6.80;;;14.00;99.90;;;;;;5030970;28;20576;-75
2021/09/25 02:35:42;;;;;;;9.90;6.83;;;14.00;99.90;;;;;;5028606;28;20421;-75
2021/09/25 02:38:09;;;;;;;9.60;6.97;;;14.00;99.90;;;;;;5033129;28;20191;-75
2021/09/25 02:40:35;;;;;;;7.53;6.00;;;14.00;99.90;;;;;;5030495;28;20197;-75
2021/09/25 02:43:00;;;;;;;10.70;6.13;;;14.00;99.90;;;;;;5029940;28;20463;-75
2021/09/25 02:45:26;;;;;;;10.37;7.63;;;13.90;99.90;;;;;;5033338;28;21058;-75
2021/09/25 02:47:52;;;;;;;10.60;5.70;;;13.90;99.90;;;;;;5033683;28;20205;-75
2021/09/25 02:50:18;;;;;;;9.30;6.17;;;13.90;99.90;;;;;;5028758;28;20193;-75
2021/09/25 02:52:43;;;;;;;10.83;6.53;;;13.90;99.90;;;;;;5027078;28;20532;-75
2021/09/25 02:55:10;;;;;;;12.40;6.03;;;13.90;99.90;;;;;;5028915;28;20416;-75
2021/09/25 02:57:36;;;;;;;8.90;6.50;;;13.90;99.90;;;;;;5020142;28;20176;-75
2021/09/25 03:00:05;;;;;;;9.20;6.37;;;13.90;99.90;;;;;;5026967;28;20429;-75
2021/09/25 03:02:31;;;;;;;7.93;6.43;;;13.90;99.90;;;;;;5026223;28;20236;-75
2021/09/25 03:04:56;;;;;;;9.83;8.10;;;13.90;99.90;;;;;;5028056;28;20427;-75
2021/09/25 03:07:22;;;;;;;9.03;6.33;;;14.00;99.90;;;;;;5025615;28;20546;-75
2021/09/25 03:09:49;;;;;;;11.83;6.77;;;14.00;99.90;;;;;;5031859;28;20176;-75
2021/09/25 03:12:15;;;;;;;10.07;7.00;;;14.00;99.90;;;;;;5032210;28;20176;-75
2021/09/25 03:14:41;;;;;;;8.73;6.17;;;14.00;99.90;;;;;;5028114;28;20420;-75
2021/09/25 03:17:06;;;;;;;9.43;6.90;;;14.00;99.90;;;;;;5030974;28;20417;-75
2021/09/25 03:19:32;;;;;;;10.30;7.00;;;14.00;99.90;;;;;;5029594;28;20266;-75
2021/09/25 03:21:58;;;;;;;11.70;6.33;;;14.00;99.90;;;;;;5029398;28;20197;-75
2021/09/25 03:24:23;;;;;;;8.87;6.60;;;14.10;99.90;;;;;;5029705;28;20176;-75
2021/09/25 03:26:49;;;;;;;10.50;7.60;;;14.10;99.90;;;;;;5027135;28;20174;-75
2021/09/25 03:29:14;;;;;;;8.70;6.80;;;14.20;99.90;;;;;;5029390;28;20191;-75
2021/09/25 03:31:40;;;;;;;12.73;7.77;;;14.20;99.90;;;;;;5029806;28;20701;-75
2021/09/25 03:34:06;;;;;;;11.63;8.83;;;14.20;99.90;;;;;;5026954;28;20180;-75
2021/09/25 03:36:32;;;;;;;10.50;7.83;;;14.30;99.90;;;;;;5027393;28;20180;-75
2021/09/25 03:38:57;;;;;;;10.03;7.90;;;14.30;99.90;;;;;;5027320;28;20784;-75
2021/09/25 03:41:23;;;;;;;10.83;7.77;;;14.40;99.90;;;;;;5030431;28;20209;-75
2021/09/25 03:43:50;;;;;;;8.40;7.17;;;14.40;99.90;;;;;;5029074;28;20618;-75
2021/09/25 03:46:17;;;;;;;9.73;6.37;;;14.40;99.90;;;;;;5027384;28;20197;-75
2021/09/25 03:48:44;;;;;;;7.37;6.57;;;14.40;99.90;;;;;;5031655;28;20418;-75
2021/09/25 03:51:09;;;;;;;10.93;7.50;;;14.50;99.90;;;;;;5024773;28;20416;-75
2021/09/25 03:53:35;;;;;;;8.00;6.60;;;14.50;99.90;;;;;;5027268;28;20762;-75
2021/09/25 03:56:07;;;;;;;11.20;6.50;;;14.50;99.90;;;;;;5025282;28;20545;-75
2021/09/25 03:58:33;;;;;;;8.40;6.77;;;14.60;99.90;;;;;;5030215;28;20181;-75
2021/09/25 04:00:58;;;;;;;11.73;7.13;;;14.60;99.90;;;;;;5029372;28;20813;-75
2021/09/25 04:03:23;;;;;;;10.53;6.57;;;14.60;99.90;;;;;;5028562;28;20178;-75
2021/09/25 04:05:49;;;;;;;12.30;8.03;;;14.60;99.90;;;;;;5031637;28;20172;-75
2021/09/25 04:08:15;;;;;;;9.90;7.57;;;14.70;99.90;;;;;;5029078;28;20622;-75
2021/09/25 04:10:40;;;;;;;10.57;7.43;;;14.70;99.90;;;;;;5029651;28;20177;-75
2021/09/25 04:13:06;;;;;;;8.77;6.30;;;14.70;99.90;;;;;;5030546;28;20704;-75
2021/09/25 04:15:31;;;;;;;10.53;7.13;;;14.70;99.90;;;;;;5027951;28;20665;-75
2021/09/25 04:17:57;;;;;;;9.50;7.30;;;14.70;99.90;;;;;;5028840;28;20240;-75
2021/09/25 04:20:22;;;;;;;8.37;6.70;;;14.80;99.90;;;;;;5027726;28;20544;-75
2021/09/25 04:22:48;;;;;;;8.83;6.90;;;14.80;99.90;;;;;;5030999;28;20203;-75
2021/09/25 04:25:13;;;;;;;7.43;6.27;;;14.80;99.90;;;;;;5024515;28;20292;-75
2021/09/25 04:27:39;;;;;;;10.07;6.70;;;14.80;99.90;;;;;;5029453;28;20176;-75
2021/09/25 04:30:05;;;;;;;14.93;7.40;;;14.80;99.90;;;;;;5030040;28;20198;-75
2021/09/25 04:32:31;;;;;;;15.93;7.20;;;14.80;99.90;;;;;;5029496;28;20280;-75
2021/09/25 04:34:56;;;;;;;10.23;7.07;;;14.80;99.90;;;;;;5022627;28;21024;-75
2021/09/25 04:37:22;;;;;;;7.00;6.30;;;14.80;99.90;;;;;;5028610;28;20268;-75
2021/09/25 04:39:48;;;;;;;10.80;7.73;;;14.90;99.90;;;;;;5027980;28;20651;-75
2021/09/25 04:42:14;;;;;;;9.30;6.97;;;14.90;99.90;;;;;;5030005;28;20471;-75
2021/09/25 04:44:40;;;;;;;13.37;7.87;;;14.90;99.90;;;;;;5024838;28;20431;-75
2021/09/25 04:47:06;;;;;;;9.60;7.37;;;14.90;99.90;;;;;;5024576;28;20768;-75
2021/09/25 04:49:31;;;;;;;9.80;6.73;;;14.90;99.90;;;;;;5020787;28;20667;-75
2021/09/25 04:51:57;;;;;;;12.13;7.27;;;14.90;99.90;;;;;;5022373;28;20196;-75
2021/09/25 04:54:23;;;;;;;11.27;8.27;;;14.90;99.90;;;;;;5024430;28;20645;-75
2021/09/25 04:56:48;;;;;;;9.60;6.27;;;14.90;99.90;;;;;;5030029;28;20239;-75
2021/09/25 04:59:14;;;;;;;17.70;6.93;;;14.90;99.90;;;;;;5026314;28;20193;-75
2021/09/25 05:01:39;;;;;;;8.63;6.17;;;14.90;99.90;;;;;;5025741;28;20202;-75
2021/09/25 05:04:07;;;;;;;14.27;7.67;;;15.00;99.90;;;;;;5027662;28;20307;-75
2021/09/25 05:06:33;;;;;;;10.30;7.07;;;15.00;99.90;;;;;;5027123;28;20252;-75
2021/09/25 05:08:59;;;;;;;12.40;7.07;;;14.90;99.90;;;;;;5026888;28;20853;-75
2021/09/25 05:11:25;;;;;;;9.30;7.10;;;14.90;99.90;;;;;;5028618;28;20543;-75
2021/09/25 05:13:51;;;;;;;8.70;6.90;;;15.00;99.90;;;;;;5025742;28;20188;-75
2021/09/25 05:16:16;;;;;;;9.63;6.87;;;15.00;99.90;;;;;;5025501;28;20980;-75
2021/09/25 05:18:42;;;;;;;9.03;7.13;;;15.00;99.90;;;;;;5020155;28;20193;-75
2021/09/25 05:21:07;;;;;;;10.90;6.53;;;15.00;99.90;;;;;;5027820;28;20260;-75
2021/09/25 05:23:35;;;;;;;10.67;7.03;;;15.00;99.90;;;;;;5027588;28;20189;-75
2021/09/25 05:26:01;;;;;;;8.80;6.13;;;15.00;99.90;;;;;;5030097;28;20289;-75
2021/09/25 05:28:27;;;;;;;8.23;7.23;;;15.00;99.90;;;;;;5031660;28;20416;-75
2021/09/25 05:30:53;;;;;;;8.30;6.50;;;15.10;99.90;;;;;;5027016;28;20442;-75
2021/09/25 05:33:19;;;;;;;10.37;6.60;;;15.00;99.90;;;;;;5030972;28;20432;-75
2021/09/25 05:35:44;;;;;;;11.97;7.10;;;15.10;99.90;;;;;;5030597;28;20264;-75
2021/09/25 05:38:10;;;;;;;10.97;7.07;;;15.10;99.90;;;;;;5030687;28;20189;-75
2021/09/25 05:40:36;;;;;;;10.70;6.93;;;15.10;99.90;;;;;;5022493;28;20291;-75
2021/09/25 05:43:02;;;;;;;9.97;6.80;;;15.10;99.90;;;;;;5026654;28;20212;-75
2021/09/25 05:45:27;;;;;;;9.93;7.33;;;15.10;99.90;;;;;;5031700;28;20715;-75
2021/09/25 05:47:54;;;;;;;10.20;6.83;;;15.10;99.90;;;;;;5027919;28;20415;-75
2021/09/25 05:50:19;;;;;;;12.60;7.90;;;15.20;99.90;;;;;;5024347;28;20636;-75
2021/09/25 05:52:45;;;;;;;8.90;6.90;;;15.20;99.90;;;;;;5032538;28;20454;-75
2021/09/25 05:55:10;;;;;;;11.23;7.40;;;15.20;99.90;;;;;;5028772;28;20181;-75
2021/09/25 05:57:36;;;;;;;9.83;7.10;;;15.20;99.90;;;;;;5033486;28;20606;-75
2021/09/25 06:00:05;;;;;;;10.23;6.40;;;15.20;99.90;;;;;;5028440;28;20549;-75
2021/09/25 06:02:31;;;;;;;8.60;7.27;;;15.20;99.90;;;;;;5029749;28;20196;-75
2021/09/25 06:04:56;;;;;;;13.90;8.97;;;15.20;99.90;;;;;;5033112;28;20427;-75
2021/09/25 06:07:22;;;;;;;12.80;8.97;;;15.30;99.90;;;;;;5034281;28;20228;-75
2021/09/25 06:09:47;;;;;;;9.63;7.33;;;15.30;99.90;;;;;;5029886;28;20184;-75
2021/09/25 06:12:13;;;;;;;12.27;6.67;;;15.30;99.90;;;;;;5033612;28;20244;-75
2021/09/25 06:14:38;;;;;;;10.83;7.10;;;15.40;99.90;;;;;;5030162;28;20272;-75
2021/09/25 06:17:05;;;;;;;9.90;7.13;;;15.40;99.90;;;;;;5028233;28;20185;-75
2021/09/25 06:19:31;;;;;;;11.77;7.57;;;15.40;99.90;;;;;;5026218;28;20559;-76
2021/09/25 06:21:56;;;;;;;10.53;7.13;;;15.40;99.90;;;;;;5030652;28;20992;-75
2021/09/25 06:24:22;;;;;;;10.13;8.30;;;15.50;99.90;;;;;;5024080;28;20474;-75
2021/09/25 06:26:48;;;;;;;8.93;6.60;;;15.50;99.90;;;;;;5026768;28;20188;-75
2021/09/25 06:29:14;;;;;;;11.50;6.87;;;15.50;99.90;;;;;;5023209;28;20648;-75
2021/09/25 06:31:39;;;;;;;10.30;7.20;;;15.60;99.90;;;;;;5031001;28;20515;-75
2021/09/25 06:34:05;;;;;;;10.33;6.90;;;15.60;99.90;;;;;;5023611;28;20551;-75
2021/09/25 06:36:33;;;;;;;11.80;7.67;;;15.60;99.90;;;;;;5027539;28;20212;-75
2021/09/25 06:38:59;;;;;;;9.13;6.63;;;15.70;99.90;;;;;;5023547;28;20251;-75
2021/09/25 06:41:25;;;;;;;12.23;8.30;;;15.70;99.90;;;;;;5028624;28;20470;-75
2021/09/25 06:43:50;;;;;;;10.57;7.13;;;15.70;99.90;;;;;;5024256;28;20508;-75
2021/09/25 06:46:16;;;;;;;11.70;8.77;;;15.80;99.90;;;;;;5027251;28;20177;-75
2021/09/25 06:48:42;;;;;;;11.27;7.70;;;15.80;99.90;;;;;;5028904;28;20196;-75
2021/09/25 06:51:08;;;;;;;11.13;7.07;;;15.90;99.90;;;;;;5027348;28;20211;-75
2021/09/25 06:53:34;;;;;;;11.67;7.17;;;15.90;99.90;;;;;;5024572;28;20563;-75
2021/09/25 06:55:59;;;;;;;11.30;6.80;;;16.00;99.90;;;;;;5027470;28;20631;-75
2021/09/25 06:58:25;;;;;;;8.67;7.00;;;16.00;99.90;;;;;;5033552;28;20185;-75
2021/09/25 07:00:50;;;;;;;9.17;6.50;;;16.10;99.90;;;;;;5030918;28;20181;-75
2021/09/25 07:03:17;;;;;;;12.43;7.13;;;16.10;99.90;;;;;;5029623;28;20209;-75
2021/09/25 07:05:43;;;;;;;10.90;6.93;;;16.20;99.90;;;;;;5028825;28;20173;-75
2021/09/25 07:08:09;;;;;;;9.03;6.53;;;16.20;99.90;;;;;;5031252;28;20435;-75
2021/09/25 07:10:36;;;;;;;8.10;6.10;;;16.20;99.90;;;;;;5027634;28;20238;-75
2021/09/25 07:13:02;;;;;;;11.37;6.63;;;16.30;99.90;;;;;;5030927;28;20631;-75
2021/09/25 07:15:27;;;;;;;8.17;7.07;;;16.40;99.90;;;;;;5029216;28;20495;-75
2021/09/25 07:17:53;;;;;;;7.80;5.40;;;16.40;99.90;;;;;;5031517;28;20431;-75
2021/09/25 07:20:18;;;;;;;8.60;5.93;;;16.40;99.90;;;;;;5031743;28;20192;-75
2021/09/25 07:22:46;;;;;;;9.30;6.97;;;16.40;99.90;;;;;;5028908;28;20666;-75
2021/09/25 07:25:12;;;;;;;10.70;6.87;;;16.50;99.90;;;;;;5028700;28;20631;-75
2021/09/25 07:27:38;;;;;;;10.13;7.13;;;16.50;99.90;;;;;;5026583;28;20929;-75
2021/09/25 07:30:04;;;;;;;9.00;7.43;;;16.50;99.90;;;;;;5026579;28;20431;-75
2021/09/25 07:32:30;;;;;;;10.50;7.10;;;16.50;99.90;;;;;;5028804;28;20208;-75
2021/09/25 07:34:55;;;;;;;9.70;8.37;;;16.60;99.90;;;;;;5029911;28;20427;-75
2021/09/25 07:37:21;;;;;;;8.70;6.70;;;16.50;99.90;;;;;;5027306;28;20178;-75
2021/09/25 07:39:46;;;;;;;9.87;7.17;;;16.60;99.90;;;;;;5026590;28;20192;-75
2021/09/25 07:42:12;;;;;;;11.23;7.57;;;16.60;99.90;;;;;;5026770;28;20216;-75
2021/09/25 07:44:37;;;;;;;9.07;7.27;;;16.70;99.90;;;;;;5027531;28;20278;-75
2021/09/25 07:47:03;;;;;;;12.30;7.60;;;16.70;99.90;;;;;;5024909;28;20316;-75
2021/09/25 07:49:29;;;;;;;8.30;7.47;;;16.70;99.90;;;;;;5028695;28;20181;-75
2021/09/25 07:51:55;;;;;;;6.87;5.50;;;16.80;99.90;;;;;;5029326;28;20431;-75
2021/09/25 07:54:20;;;;;;;11.07;6.80;;;16.80;99.90;;;;;;5021230;28;20243;-75
2021/09/25 07:56:46;;;;;;;6.43;5.70;;;16.80;99.90;;;;;;5026827;28;20188;-75
2021/09/25 07:59:11;;;;;;;10.23;6.90;;;16.80;99.90;;;;;;5029476;28;20545;-75
2021/09/25 08:01:37;;;;;;;8.70;6.50;;;16.80;99.90;;;;;;5028668;28;20212;-75
2021/09/25 08:04:02;;;;;;;8.80;5.80;;;16.80;99.90;;;;;;5024783;28;20178;-75
2021/09/25 08:06:28;;;;;;;7.70;5.87;;;16.80;99.90;;;;;;5026508;28;20709;-75
2021/09/25 08:08:53;;;;;;;6.67;5.70;;;16.80;99.90;;;;;;5029578;28;20596;-75
2021/09/25 08:11:19;;;;;;;7.60;5.57;;;16.80;99.90;;;;;;5030133;28;20173;-75
2021/09/25 08:13:44;;;;;;;7.97;5.70;;;16.80;99.90;;;;;;5024344;28;20292;-75
2021/09/25 08:16:10;;;;;;;6.23;5.20;;;16.80;99.90;;;;;;5027023;28;20180;-75
2021/09/25 08:18:36;;;;;;;6.83;5.70;;;16.70;99.90;;;;;;5022649;28;20188;-75
2021/09/25 08:21:02;;;;;;;6.47;5.20;;;16.70;99.90;;;;;;5025435;28;20550;-75
2021/09/25 08:23:27;;;;;;;6.37;4.90;;;16.70;99.90;;;;;;5031631;28;20169;-75
2021/09/25 08:25:56;;;;;;;6.50;5.30;;;16.70;99.90;;;;;;5029125;28;20831;-75
2021/09/25 08:28:22;;;;;;;5.97;4.50;;;16.80;99.90;;;;;;5030252;28;20176;-75
2021/09/25 08:30:47;;;;;;;7.40;5.60;;;16.80;99.90;;;;;;5029876;28;20418;-75
2021/09/25 08:33:13;;;;;;;7.27;5.70;;;16.80;99.90;;;;;;5030521;28;20232;-76
2021/09/25 08:35:38;;;;;;;13.03;6.00;;;16.90;99.90;;;;;;5031966;28;20203;-75
2021/09/25 08:38:04;;;;;;;9.60;6.43;;;16.90;99.90;;;;;;5029117;28;20946;-75
2021/09/25 08:40:31;;;;;;;11.13;5.30;;;17.00;99.90;;;;;;5029845;28;20185;-75
2021/09/25 08:42:57;;;;;;;7.13;5.30;;;17.10;99.90;;;;;;5030830;28;20211;-75
2021/09/25 08:45:24;;;;;;;6.50;5.40;;;17.20;99.90;;;;;;5031153;28;20426;-75
2021/09/25 08:47:49;;;;;;;6.80;5.70;;;17.20;99.90;;;;;;5030146;28;20469;-75
2021/09/25 08:50:16;;;;;;;6.77;5.70;;;17.30;99.90;;;;;;5026644;28;20413;-75
2021/09/25 08:52:43;;;;;;;7.67;6.00;;;17.30;99.90;;;;;;5031015;28;20251;-75
2021/09/25 08:55:11;;;;;;;8.33;5.57;;;17.40;99.90;;;;;;5028110;28;20840;-75
2021/09/25 08:57:38;;;;;;;7.17;4.90;;;17.40;99.90;;;;;;5024625;28;20412;-75
2021/09/25 09:08:43;;;;;;;6.97;5.13;;;17.70;99.90;;;;;;5054110;28;20522;-72
2021/09/25 09:11:10;;;;;;;5.00;4.10;;;18.10;99.90;;;;;;5049028;28;20417;-72
2021/09/25 09:13:38;;;;;;;5.67;4.23;;;18.20;99.90;;;;;;5048189;28;20493;-72
2021/09/25 09:16:05;;;;;;;6.30;4.53;;;18.40;99.90;;;;;;5049018;28;20437;-72
2021/09/25 09:18:33;;;;;;;4.00;3.50;;;18.50;99.90;;;;;;5050483;28;20420;-72
2021/09/25 09:23:48;;;;;;;9.63;5.13;;;18.80;99.90;;;;;;5042442;27;20614;-72
2021/09/25 09:26:16;;;;;;;9.13;4.77;;;18.90;99.90;;;;;;5021073;28;20953;-72
2021/09/25 09:28:43;;;;;;;4.70;3.90;;;18.90;99.90;;;;;;5023671;28;20465;-72
2021/09/25 09:31:10;;;;;;;12.80;5.40;;;18.80;99.90;;;;;;5021600;28;21172;-72
2021/09/25 09:33:57;;;;;;;6.53;4.43;;;18.90;99.90;;;;;;5024282;28;20427;-72
2021/09/25 09:36:29;;;;;;;4.83;4.27;;;19.00;99.90;;;;;;5016683;28;20810;-72
2021/09/25 09:41:37;;;;;;;5.63;3.57;;;19.10;99.90;;;;;;5045144;28;20647;-72
2021/09/25 09:44:06;;;;;;;12.13;5.83;;;19.20;99.90;;;;;;5040365;28;20437;-72
2021/09/25 09:46:36;;;;;;;6.47;4.77;;;19.30;99.90;;;;;;5043496;28;20409;-72
2021/09/25 09:49:01;;;;;;;4.70;4.03;;;19.40;99.90;;;;;;5048966;28;20745;-72
2021/09/25 09:54:28;;;;;;;5.43;4.27;;;19.50;99.90;;;;;;5128132;27;20498;-73
2021/09/25 09:56:56;;;;;;;6.60;4.20;;;19.70;99.90;;;;;;5127730;27;20426;-73
2021/09/25 09:59:22;;;;;;;4.37;3.97;;;19.70;99.90;;;;;;5126266;27;20495;-73
2021/09/25 10:01:48;;;;;;;5.50;3.80;;;19.80;99.90;;;;;;5125487;27;20512;-74
2021/09/25 10:04:15;;;;;;;4.80;4.07;;;19.90;99.90;;;;;;5129997;27;20666;-74
2021/09/25 10:06:41;;;;;;;5.33;3.70;;;19.80;99.90;;;;;;5126693;27;20175;-74
2021/09/25 10:09:09;;;;;;;4.47;4.03;;;19.70;99.90;;;;;;5122069;27;20489;-74
2021/09/25 10:11:37;;;;;;;6.03;4.17;;;19.70;99.90;;;;;;5127054;27;20513;-74
2021/09/25 10:14:04;;;;;;;5.07;3.70;;;19.70;99.90;;;;;;5126695;27;20543;-74
2021/09/25 10:16:30;;;;;;;4.50;4.10;;;19.70;99.90;;;;;;5118551;27;20447;-74
2021/09/25 10:18:56;;;;;;;5.27;4.23;;;19.70;99.90;;;;;;5124428;28;21027;-74
2021/09/25 10:21:24;;;;;;;4.53;4.13;;;19.80;99.90;;;;;;5124423;27;20502;-74
2021/09/25 10:23:58;;;;;;;5.20;4.13;;;19.90;99.90;;;;;;5126092;27;20425;-74
2021/09/25 10:26:25;;;;;;;5.10;4.60;;;19.90;99.90;;;;;;5128153;27;20408;-74
2021/09/25 10:28:54;;;;;;;5.53;4.37;;;19.90;99.90;;;;;;5127737;27;20430;-74
2021/09/25 10:31:21;;;;;;;4.87;4.10;;;19.90;99.90;;;;;;5121693;27;20416;-74
2021/09/25 10:36:49;;;;;;;5.83;4.60;;;19.90;99.90;;;;;;5066990;28;20520;-72
2021/09/25 10:39:18;;;;;;;6.73;4.63;;;20.00;99.90;;;;;;5054004;28;20796;-72
2021/09/25 10:41:45;;;;;;;4.80;3.47;;;20.10;99.90;;;;;;5045384;28;20413;-72
2021/09/25 10:44:32;;;;;;;4.97;3.50;;;20.20;99.90;;;;;;5050094;28;20402;-73
2021/09/25 10:47:07;;;;;;;6.20;3.30;;;20.20;99.90;;;;;;5054426;28;20417;-73
2021/09/25 10:49:55;;;;;;;7.13;3.83;;;20.30;99.90;;;;;;5045062;28;20459;-72
2021/09/25 10:52:24;;;;;;;4.53;3.60;;;20.30;99.90;;;;;;5051499;28;20429;-72
2021/09/25 10:55:20;;;;;;;4.87;3.73;;;20.40;99.90;;;;;;5053774;28;20862;-73
2021/09/25 10:58:25;;;;;;;4.57;3.70;;;20.50;99.90;;;;;;5050481;28;20973;-73
2021/09/25 11:03:50;;;;;;;5.57;3.73;;;20.50;99.90;;;;;;5065213;28;20524;-75
2021/09/25 11:12:04;;;;;;;6.20;3.50;;;20.70;99.90;;;;;;5067967;28;20536;-72
2021/09/25 11:14:40;;;;;;;5.23;2.60;;;20.80;99.90;;;;;;5068549;28;20786;-72
2021/09/25 11:20:09;;;;;;;5.23;3.80;;;20.90;99.90;;;;;;5066905;28;20532;-73
2021/09/25 11:22:36;;;;;;;4.67;2.70;;;21.00;99.90;;;;;;5044396;28;20912;-73
2021/09/25 11:27:42;;;;;;;6.50;4.20;;;21.10;99.90;;;;;;5077471;27;20519;-73
2021/09/25 11:30:25;;;;;;;4.20;3.80;;;21.10;99.90;;;;;;5052481;28;20407;-73
2021/09/25 11:35:32;;;;;;;4.93;3.43;;;21.10;99.90;;;;;;5068721;28;20998;-75
2021/09/25 11:40:39;;;;;;;5.00;3.10;;;21.20;99.90;;;;;;5068266;28;20646;-73
2021/09/25 11:43:08;;;;;;;4.63;3.57;;;21.30;99.90;;;;;;5056423;28;20836;-74
2021/09/25 11:45:37;;;;;;;5.40;3.80;;;21.40;99.90;;;;;;5050762;28;20413;-74
2021/09/25 11:48:04;;;;;;;4.07;3.67;;;21.40;99.90;;;;;;5050383;28;20407;-74
2021/09/25 11:50:35;;;;;;;3.27;2.80;;;21.50;99.90;;;;;;5058537;28;20394;-74
2021/09/25 11:53:04;;;;;;;3.53;3.13;;;21.60;99.90;;;;;;5055506;28;20418;-74
2021/09/25 11:55:31;;;;;;;4.97;4.43;;;21.60;99.90;;;;;;5056054;28;20425;-74
2021/09/25 11:58:02;;;;;;;5.10;4.27;;;21.70;99.90;;;;;;5054800;28;20931;-74
2021/09/25 12:00:32;;;;;;;4.00;3.53;;;21.80;99.90;;;;;;5049021;28;20611;-74
2021/09/25 12:02:59;;;;;;;4.40;3.83;;;21.80;99.90;;;;;;5053816;28;20462;-74
2021/09/25 12:05:43;;;;;;;3.33;2.90;;;21.90;99.90;;;;;;5058583;28;20415;-74
2021/09/25 12:08:23;;;;;;;4.60;3.67;;;21.90;99.90;;;;;;5058056;28;20402;-74
2021/09/25 12:10:53;;;;;;;4.27;3.50;;;21.90;99.90;;;;;;5048446;28;20888;-74
2021/09/25 12:16:00;;;;;;;3.77;3.37;;;21.90;99.90;;;;;;5064430;28;20528;-73
2021/09/25 12:18:31;;;;;;;4.40;4.00;;;21.90;99.90;;;;;;5053479;28;20513;-73
2021/09/25 12:21:01;;;;;;;5.67;4.10;;;21.90;99.90;;;;;;5054293;28;20417;-73
2021/09/25 12:26:14;;;;;;;3.70;3.23;;;21.90;99.90;;;;;;5065706;28;20516;-73
2021/09/25 12:28:46;;;;;;;3.67;3.37;;;22.00;99.90;;;;;;5054269;28;20529;-73
2021/09/25 12:31:16;;;;;;;3.90;2.60;;;21.90;99.90;;;;;;5043192;28;20513;-73
2021/09/25 12:33:49;;;;;;;3.60;3.30;;;21.70;99.90;;;;;;5055719;28;20429;-73
2021/09/25 12:36:16;;;;;;;3.70;3.03;;;21.60;99.90;;;;;;5057299;28;20414;-73
2021/09/25 12:38:44;;;;;;;4.13;3.73;;;21.40;99.90;;;;;;5059612;28;20894;-73
2021/09/25 12:41:16;;;;;;;6.93;2.80;;;21.20;99.90;;;;;;5059126;28;20545;-73
2021/09/25 12:43:44;;;;;;;4.83;3.60;;;21.10;99.90;;;;;;5059513;28;20420;-73
2021/09/25 12:46:16;;;;;;;3.70;3.20;;;20.90;99.90;;;;;;5056953;28;20419;-73
2021/09/25 12:51:46;;;;;;;3.23;2.93;;;20.60;99.90;;;;;;5048690;28;20672;-73
2021/09/25 12:54:15;;;;;;;4.10;3.07;;;20.40;99.90;;;;;;5038605;28;20446;-73
2021/09/25 12:56:45;;;;;;;3.30;2.67;;;20.30;99.90;;;;;;5036127;28;20404;-73
2021/09/25 12:59:12;;;;;;;4.10;3.33;;;20.20;99.90;;;;;;5034678;28;20438;-73
2021/09/25 13:01:42;;;;;;;5.83;3.00;;;20.10;99.90;;;;;;5038758;28;20428;-73
2021/09/25 13:04:19;;;;;;;5.37;3.33;;;20.00;99.90;;;;;;5033701;28;20423;-73
2021/09/25 13:06:47;;;;;;;2.70;2.50;;;20.00;99.90;;;;;;5037296;28;20418;-73
2021/09/25 13:09:13;;;;;;;4.00;3.03;;;19.90;99.90;;;;;;5033379;28;20508;-73
2021/09/25 13:11:38;;;;;;;3.13;2.43;;;19.80;99.90;;;;;;5036489;28;20455;-73
2021/09/25 13:14:13;;;;;;;3.77;2.30;;;19.70;99.90;;;;;;5032112;28;20837;-73
2021/09/25 13:16:41;;;;;;;4.10;2.67;;;19.70;99.90;;;;;;5035869;28;20221;-73
2021/09/25 13:19:08;;;;;;;3.07;2.77;;;19.70;99.90;;;;;;5034117;28;20419;-73
2021/09/25 13:21:36;;;;;;;5.10;2.50;;;19.70;99.90;;;;;;5034741;28;20795;-73
2021/09/25 13:24:05;;;;;;;3.77;2.70;;;19.70;99.90;;;;;;5035971;28;20573;-73
2021/09/25 13:26:31;;;;;;;4.90;3.20;;;19.70;99.90;;;;;;5033750;28;20803;-73
2021/09/25 13:28:57;;;;;;;6.50;3.17;;;19.60;99.90;;;;;;5035460;28;20426;-73
2021/09/25 13:31:22;;;;;;;2.87;2.57;;;19.60;99.90;;;;;;5031949;28;20262;-73